Galway, Ireland

5:22 AM IST on August 21, 2014 (GMT +0100)
Marine Institute | Change Station
CLOSE
Current Station
Personal Weather Station
Location: Rinville, Galway
Elevation: 59 ft
Nearby Weather Stations

Elev 59 ft 53.25 °N, 8.98 °W | Updated 206 days ago

Mostly Cloudy
Mostly Cloudy
53 °F
Feels Like 53 °F
N
10
Wind Variable Wind from SW
Gusts mph

Today
High -- | Low -- °F
--% Chance of Precip.
Yesterday
High -- | Low -- °F
Precip. -- in
6:26 AM 8:50 PM
Waning Crescent, 17% visible
Pressure 30.01 in
Visibility 5.0 miles
Clouds Few 800 ft
Scattered Clouds 1600 ft
Mostly Cloudy 3400 ft
Dew Point 49 °F
Humidity 86%
Rainfall 0.00 in
Snow Depth Not available.
UV 0 out of 12
Pollen Not available.
Air Quality Not available.
Flu Activity Not available.
METAR EINN 210400Z 21012KT 180V250 8000 -DZ FEW008 SCT016 BKN034 12/10 Q1016 NOSIG

More Conditions Fewer Conditions

Pressure 30.01 in
Visibility 5.0 miles
Clouds Few 800 ft
Scattered Clouds 1600 ft
Mostly Cloudy 3400 ft
Dew Point 49 °F
Humidity 86%
Rainfall 0.00 in
Snow Depth Not available.
UV 0 out of 12
Pollen Not available.
Air Quality Not available.
Flu Activity Not available.
METAR EINN 210400Z 21012KT 180V250 8000 -DZ FEW008 SCT016 BKN034 12/10 Q1016 NOSIG

More Conditions Fewer Conditions

10-Day Weather Forecast

Almanac

Astronomy

Aug. 21, 2014 Rise Set
Actual Time 6:26 AM IST 8:50 PM IST
Civil Twilight 5:47 AM IST 9:28 PM IST
Nautical Twilight 4:58 AM IST 10:17 PM IST
Astronomical Twilight 4:00 AM IST 11:15 PM IST
Moon 2:30 AM IST 6:22 PM IST
Length of Visible Light 15h 41m
Length of Day
14h 24m
Tomorrow will be 3m 57s shorter.
Waning Crescent, 17% of the Moon is Illuminated
Today
Waning Crescent
Aug 25
New
Sep 2
First Quarter
Sep 8
Full
Sep 15
Last Quarter

Yesterday's Extremes

Country Highs Country Lows

Community

WunderPhotos

Upload Photos

1,745,852 photos uploaded!

Nearby

Snow Depth

Not available.

Earthquake Activity

City Distance Mag. Time & Date
No recent earthquake activity has been reported nearby.
Minimum magnitude displayed is 2.5.

Coastal Water Temperatures

Place Temperature
No Stations Reporting

Nearby Weather Stations